sensor_id;sensor_type;location;lat;lon;timestamp;pressure;altitude;pressure_sealevel;temperature;humidity
24620;BME280;12763;55.802;37.404;2022-11-04T00:01:07;99559.16;;;1.38;78.99
24620;BME280;12763;55.802;37.404;2022-11-04T00:03:33;99555.84;;;1.52;78.86
24620;BME280;12763;55.802;37.404;2022-11-04T00:06:00;99553.72;;;1.38;79.56
24620;BME280;12763;55.802;37.404;2022-11-04T00:08:27;99558.59;;;1.34;79.34
24620;BME280;12763;55.802;37.404;2022-11-04T00:10:57;99558.78;;;1.66;78.84
24620;BME280;12763;55.802;37.404;2022-11-04T00:13:42;99557.91;;;1.32;79.25
24620;BME280;12763;55.802;37.404;2022-11-04T00:16:08;99556.44;;;1.38;79.56
24620;BME280;12763;55.802;37.404;2022-11-04T00:18:58;99556.69;;;1.27;80.56
24620;BME280;12763;55.802;37.404;2022-11-04T00:21:26;99554.28;;;1.24;80.35
24620;BME280;12763;55.802;37.404;2022-11-04T00:24:17;99549.09;;;1.12;80.79
24620;BME280;12763;55.802;37.404;2022-11-04T00:27:12;99549.63;;;1.16;80.46
24620;BME280;12763;55.802;37.404;2022-11-04T00:29:58;99550.72;;;1.05;80.99
24620;BME280;12763;55.802;37.404;2022-11-04T00:32:27;99558.88;;;0.80;81.41
24620;BME280;12763;55.802;37.404;2022-11-04T00:35:15;99566.06;;;0.89;81.63
24620;BME280;12763;55.802;37.404;2022-11-04T00:37:44;99554.53;;;1.12;80.55
24620;BME280;12763;55.802;37.404;2022-11-04T00:40:15;99551.19;;;1.18;80.48
24620;BME280;12763;55.802;37.404;2022-11-04T00:42:44;99538.34;;;1.29;80.47
24620;BME280;12763;55.802;37.404;2022-11-04T00:45:12;99547.19;;;1.31;79.82
24620;BME280;12763;55.802;37.404;2022-11-04T00:47:38;99548.47;;;1.44;79.63
24620;BME280;12763;55.802;37.404;2022-11-04T00:50:05;99551.72;;;1.48;79.83
24620;BME280;12763;55.802;37.404;2022-11-04T00:52:34;99539.16;;;1.55;79.21
24620;BME280;12763;55.802;37.404;2022-11-04T00:55:04;99546.59;;;1.45;79.45
24620;BME280;12763;55.802;37.404;2022-11-04T00:57:33;99545.53;;;1.38;79.83
24620;BME280;12763;55.802;37.404;2022-11-04T01:00:00;99538.47;;;1.27;80.01
24620;BME280;12763;55.802;37.404;2022-11-04T01:02:26;99537.91;;;1.41;79.42
24620;BME280;12763;55.802;37.404;2022-11-04T01:04:53;99541.16;;;1.45;79.60
24620;BME280;12763;55.802;37.404;2022-11-04T01:07:19;99534.41;;;1.49;79.55
24620;BME280;12763;55.802;37.404;2022-11-04T01:09:47;99538.34;;;1.54;79.01
24620;BME280;12763;55.802;37.404;2022-11-04T01:12:13;99535.09;;;1.51;79.43
24620;BME280;12763;55.802;37.404;2022-11-04T01:14:42;99539.34;;;1.53;78.80
24620;BME280;12763;55.802;37.404;2022-11-04T01:17:12;99539.91;;;1.65;78.84
24620;BME280;12763;55.802;37.404;2022-11-04T01:19:38;99528.78;;;1.50;78.80
24620;BME280;12763;55.802;37.404;2022-11-04T01:22:07;99529.28;;;1.46;79.82
24620;BME280;12763;55.802;37.404;2022-11-04T01:24:33;99537.47;;;1.54;79.12
24620;BME280;12763;55.802;37.404;2022-11-04T01:27:00;99526.97;;;1.59;78.58
24620;BME280;12763;55.802;37.404;2022-11-04T01:29:27;99534.09;;;1.52;78.48
24620;BME280;12763;55.802;37.404;2022-11-04T01:31:53;99538.88;;;1.66;78.34
24620;BME280;12763;55.802;37.404;2022-11-04T01:34:19;99536.09;;;1.50;78.86
24620;BME280;12763;55.802;37.404;2022-11-04T01:36:46;99538.28;;;1.46;78.76
24620;BME280;12763;55.802;37.404;2022-11-04T01:39:14;99540.47;;;1.43;78.83
24620;BME280;12763;55.802;37.404;2022-11-04T01:41:50;99545.06;;;1.42;79.38
24620;BME280;12763;55.802;37.404;2022-11-04T01:47:21;99545.78;;;1.52;79.43
24620;BME280;12763;55.802;37.404;2022-11-04T01:49:56;99547.59;;;1.44;79.38
24620;BME280;12763;55.802;37.404;2022-11-04T01:52:46;99540.25;;;1.36;79.32
24620;BME280;12763;55.802;37.404;2022-11-04T01:55:25;99556.56;;;1.10;80.64
24620;BME280;12763;55.802;37.404;2022-11-04T01:57:57;99551.81;;;1.12;80.76
24620;BME280;12763;55.802;37.404;2022-11-04T02:00:25;99549.00;;;1.22;80.52
24620;BME280;12763;55.802;37.404;2022-11-04T02:03:07;99551.53;;;1.49;79.61
24620;BME280;12763;55.802;37.404;2022-11-04T02:05:43;99543.59;;;1.56;79.27
24620;BME280;12763;55.802;37.404;2022-11-04T02:08:14;99549.69;;;1.50;78.81
24620;BME280;12763;55.802;37.404;2022-11-04T02:10:49;99548.78;;;1.41;79.21
24620;BME280;12763;55.802;37.404;2022-11-04T02:13:26;99543.56;;;0.96;80.68
24620;BME280;12763;55.802;37.404;2022-11-04T02:16:11;99542.47;;;0.89;81.46
24620;BME280;12763;55.802;37.404;2022-11-04T02:19:01;99548.00;;;0.80;81.05
24620;BME280;12763;55.802;37.404;2022-11-04T02:30:11;99550.66;;;0.97;80.58
24620;BME280;12763;55.802;37.404;2022-11-04T02:41:13;99537.16;;;1.05;80.68
24620;BME280;12763;55.802;37.404;2022-11-04T02:46:43;99538.28;;;0.77;81.51
24620;BME280;12763;55.802;37.404;2022-11-04T02:49:18;99544.78;;;0.84;80.93
24620;BME280;12763;55.802;37.404;2022-11-04T02:52:07;99542.69;;;0.78;80.95
24620;BME280;12763;55.802;37.404;2022-11-04T02:55:25;99540.59;;;0.72;81.25
24620;BME280;12763;55.802;37.404;2022-11-04T02:57:35;99543.81;;;0.68;81.31
24620;BME280;12763;55.802;37.404;2022-11-04T03:00:08;99543.75;;;1.03;80.60
24620;BME280;12763;55.802;37.404;2022-11-04T03:02:53;99533.97;;;1.10;80.23
24620;BME280;12763;55.802;37.404;2022-11-04T03:05:26;99546.22;;;1.14;79.76
24620;BME280;12763;55.802;37.404;2022-11-04T03:08:00;99546.31;;;1.30;79.89
24620;BME280;12763;55.802;37.404;2022-11-04T03:11:02;99540.38;;;1.27;79.89
24620;BME280;12763;55.802;37.404;2022-11-04T03:13:57;99534.94;;;1.27;79.98
24620;BME280;12763;55.802;37.404;2022-11-04T03:16:35;99534.88;;;1.18;79.47
24620;BME280;12763;55.802;37.404;2022-11-04T03:22:01;99540.09;;;1.38;79.38
24620;BME280;12763;55.802;37.404;2022-11-04T03:24:30;99539.06;;;1.39;79.79
24620;BME280;12763;55.802;37.404;2022-11-04T03:29:41;99531.28;;;1.44;79.27
24620;BME280;12763;55.802;37.404;2022-11-04T03:34:57;99532.09;;;1.36;79.14
24620;BME280;12763;55.802;37.404;2022-11-04T03:37:24;99531.63;;;1.41;79.65
24620;BME280;12763;55.802;37.404;2022-11-04T03:39:51;99529.41;;;1.44;79.25
24620;BME280;12763;55.802;37.404;2022-11-04T03:42:22;99528.97;;;1.49;78.78
24620;BME280;12763;55.802;37.404;2022-11-04T03:44:55;99535.03;;;1.68;78.98
24620;BME280;12763;55.802;37.404;2022-11-04T03:47:29;99532.09;;;1.62;78.60
24620;BME280;12763;55.802;37.404;2022-11-04T03:50:07;99546.00;;;1.59;78.95
24620;BME280;12763;55.802;37.404;2022-11-04T03:52:35;99541.25;;;1.61;78.66
24620;BME280;12763;55.802;37.404;2022-11-04T03:55:02;99541.22;;;1.53;78.58
24620;BME280;12763;55.802;37.404;2022-11-04T03:58:03;99532.09;;;1.62;78.51
24620;BME280;12763;55.802;37.404;2022-11-04T04:00:38;99541.22;;;1.53;78.76
24620;BME280;12763;55.802;37.404;2022-11-04T04:03:17;99539.63;;;1.42;78.87
24620;BME280;12763;55.802;37.404;2022-11-04T04:06:21;99540.31;;;1.78;77.85
24620;BME280;12763;55.802;37.404;2022-11-04T04:09:30;99531.50;;;1.84;77.70
24620;BME280;12763;55.802;37.404;2022-11-04T04:12:29;99536.66;;;1.95;77.26
24620;BME280;12763;55.802;37.404;2022-11-04T04:15:07;99537.00;;;2.00;77.29
24620;BME280;12763;55.802;37.404;2022-11-04T04:17:49;99537.03;;;2.08;77.46
24620;BME280;12763;55.802;37.404;2022-11-04T04:20:24;99533.66;;;2.14;76.75
24620;BME280;12763;55.802;37.404;2022-11-04T04:23:00;99532.66;;;2.15;76.37
24620;BME280;12763;55.802;37.404;2022-11-04T04:26:02;99539.97;;;2.15;76.04
24620;BME280;12763;55.802;37.404;2022-11-04T04:28:52;99546.50;;;1.96;77.08
24620;BME280;12763;55.802;37.404;2022-11-04T04:31:19;99539.22;;;1.97;77.18
24620;BME280;12763;55.802;37.404;2022-11-04T04:34:10;99540.22;;;1.88;76.64
24620;BME280;12763;55.802;37.404;2022-11-04T04:36:45;99545.03;;;1.68;77.39
24620;BME280;12763;55.802;37.404;2022-11-04T04:39:22;99544.72;;;1.71;77.54
24620;BME280;12763;55.802;37.404;2022-11-04T04:42:12;99547.75;;;1.68;77.30
24620;BME280;12763;55.802;37.404;2022-11-04T04:45:03;99544.75;;;1.79;77.31
24620;BME280;12763;55.802;37.404;2022-11-04T04:47:43;99546.50;;;1.54;77.24
24620;BME280;12763;55.802;37.404;2022-11-04T04:50:18;99548.44;;;1.70;77.03
24620;BME280;12763;55.802;37.404;2022-11-04T04:52:58;99546.59;;;1.70;77.75
24620;BME280;12763;55.802;37.404;2022-11-04T04:55:26;99550.66;;;1.41;77.73
24620;BME280;12763;55.802;37.404;2022-11-04T04:57:53;99544.28;;;1.58;77.83
24620;BME280;12763;55.802;37.404;2022-11-04T05:00:25;99550.59;;;1.58;77.47
24620;BME280;12763;55.802;37.404;2022-11-04T05:02:57;99558.91;;;1.57;77.26
24620;BME280;12763;55.802;37.404;2022-11-04T05:05:33;99560.16;;;1.62;76.93
24620;BME280;12763;55.802;37.404;2022-11-04T05:08:04;99562.69;;;1.64;77.24
24620;BME280;12763;55.802;37.404;2022-11-04T05:10:31;99553.16;;;1.60;77.45
24620;BME280;12763;55.802;37.404;2022-11-04T05:13:00;99563.59;;;1.72;77.10
24620;BME280;12763;55.802;37.404;2022-11-04T05:15:46;99555.63;;;1.79;76.89
24620;BME280;12763;55.802;37.404;2022-11-04T05:18:12;99558.41;;;1.87;76.85
24620;BME280;12763;55.802;37.404;2022-11-04T05:20:39;99559.75;;;1.91;76.37
24620;BME280;12763;55.802;37.404;2022-11-04T05:23:07;99557.75;;;1.93;76.24
24620;BME280;12763;55.802;37.404;2022-11-04T05:25:36;99562.47;;;1.91;76.22
24620;BME280;12763;55.802;37.404;2022-11-04T05:28:11;99555.34;;;1.90;75.96
24620;BME280;12763;55.802;37.404;2022-11-04T05:31:02;99557.28;;;1.72;76.70
24620;BME280;12763;55.802;37.404;2022-11-04T05:33:30;99577.22;;;1.81;76.75
24620;BME280;12763;55.802;37.404;2022-11-04T05:36:11;99570.44;;;1.51;77.11
24620;BME280;12763;55.802;37.404;2022-11-04T05:38:41;99555.44;;;1.47;77.62
24620;BME280;12763;55.802;37.404;2022-11-04T05:41:10;99572.16;;;1.52;77.70
24620;BME280;12763;55.802;37.404;2022-11-04T05:43:38;99573.94;;;1.69;77.34
24620;BME280;12763;55.802;37.404;2022-11-04T05:46:05;99579.31;;;1.87;76.60
24620;BME280;12763;55.802;37.404;2022-11-04T05:48:34;99569.97;;;1.89;76.99
24620;BME280;12763;55.802;37.404;2022-11-04T05:51:04;99579.19;;;1.62;77.38
24620;BME280;12763;55.802;37.404;2022-11-04T05:53:30;99580.44;;;1.76;77.38
24620;BME280;12763;55.802;37.404;2022-11-04T05:55:57;99576.38;;;1.80;76.86
24620;BME280;12763;55.802;37.404;2022-11-04T05:58:30;99581.50;;;1.83;77.15
24620;BME280;12763;55.802;37.404;2022-11-04T06:01:37;99579.06;;;1.72;77.48
24620;BME280;12763;55.802;37.404;2022-11-04T06:04:06;99581.50;;;1.83;77.39
24620;BME280;12763;55.802;37.404;2022-11-04T06:06:35;99576.50;;;1.45;77.82
24620;BME280;12763;55.802;37.404;2022-11-04T06:09:07;99573.66;;;1.46;78.16
24620;BME280;12763;55.802;37.404;2022-11-04T06:11:40;99575.47;;;1.71;77.38
24620;BME280;12763;55.802;37.404;2022-11-04T06:14:07;99576.41;;;1.88;76.88
24620;BME280;12763;55.802;37.404;2022-11-04T06:16:38;99580.06;;;2.05;76.02
24620;BME280;12763;55.802;37.404;2022-11-04T06:19:05;99582.06;;;1.95;76.27
24620;BME280;12763;55.802;37.404;2022-11-04T06:21:32;99576.69;;;1.77;76.74
24620;BME280;12763;55.802;37.404;2022-11-04T06:24:00;99584.06;;;1.85;77.17
24620;BME280;12763;55.802;37.404;2022-11-04T06:26:33;99584.31;;;2.07;76.46
24620;BME280;12763;55.802;37.404;2022-11-04T06:29:10;99584.69;;;2.04;75.55
24620;BME280;12763;55.802;37.404;2022-11-04T06:31:37;99583.84;;;2.12;76.09
24620;BME280;12763;55.802;37.404;2022-11-04T06:34:03;99588.72;;;2.00;76.37
24620;BME280;12763;55.802;37.404;2022-11-04T06:36:31;99584.00;;;2.10;76.54
24620;BME280;12763;55.802;37.404;2022-11-04T06:38:57;99587.13;;;2.23;75.85
24620;BME280;12763;55.802;37.404;2022-11-04T06:41:29;99586.44;;;2.29;75.37
24620;BME280;12763;55.802;37.404;2022-11-04T06:43:58;99593.66;;;2.47;75.22
24620;BME280;12763;55.802;37.404;2022-11-04T06:46:39;99598.09;;;2.40;75.56
24620;BME280;12763;55.802;37.404;2022-11-04T06:49:20;99591.59;;;2.41;75.92
24620;BME280;12763;55.802;37.404;2022-11-04T06:51:53;99599.56;;;2.26;75.82
24620;BME280;12763;55.802;37.404;2022-11-04T06:54:22;99605.03;;;2.34;76.31
24620;BME280;12763;55.802;37.404;2022-11-04T06:56:49;99603.59;;;2.14;76.81
24620;BME280;12763;55.802;37.404;2022-11-04T06:59:23;99596.06;;;2.50;77.42
24620;BME280;12763;55.802;37.404;2022-11-04T07:01:58;99601.84;;;2.47;77.36
24620;BME280;12763;55.802;37.404;2022-11-04T07:04:24;99606.63;;;2.53;75.75
24620;BME280;12763;55.802;37.404;2022-11-04T07:06:51;99611.19;;;2.44;75.84
24620;BME280;12763;55.802;37.404;2022-11-04T07:09:23;99612.09;;;2.69;75.93
24620;BME280;12763;55.802;37.404;2022-11-04T07:11:51;99613.25;;;2.50;76.09
24620;BME280;12763;55.802;37.404;2022-11-04T07:14:18;99613.94;;;2.52;76.52
24620;BME280;12763;55.802;37.404;2022-11-04T07:16:44;99616.50;;;2.54;76.56
24620;BME280;12763;55.802;37.404;2022-11-04T07:19:19;99623.09;;;2.43;76.31
24620;BME280;12763;55.802;37.404;2022-11-04T07:21:47;99613.72;;;2.37;76.66
24620;BME280;12763;55.802;37.404;2022-11-04T07:24:17;99609.00;;;2.48;76.77
24620;BME280;12763;55.802;37.404;2022-11-04T07:26:52;99617.00;;;2.49;76.52
24620;BME280;12763;55.802;37.404;2022-11-04T07:29:21;99605.50;;;2.29;77.50
24620;BME280;12763;55.802;37.404;2022-11-04T07:31:47;99609.31;;;2.45;76.94
24620;BME280;12763;55.802;37.404;2022-11-04T07:34:14;99611.03;;;2.46;77.54
24620;BME280;12763;55.802;37.404;2022-11-04T07:36:44;99606.06;;;2.41;77.68
24620;BME280;12763;55.802;37.404;2022-11-04T07:39:10;99610.56;;;2.16;78.53
24620;BME280;12763;55.802;37.404;2022-11-04T07:41:43;99604.22;;;2.42;77.94
24620;BME280;12763;55.802;37.404;2022-11-04T07:44:11;99608.25;;;2.37;78.00
24620;BME280;12763;55.802;37.404;2022-11-04T07:46:43;99604.75;;;2.45;78.00
24620;BME280;12763;55.802;37.404;2022-11-04T07:49:09;99611.22;;;2.52;77.43
24620;BME280;12763;55.802;37.404;2022-11-04T07:51:36;99612.72;;;2.47;78.29
24620;BME280;12763;55.802;37.404;2022-11-04T07:54:16;99609.44;;;2.35;78.53
24620;BME280;12763;55.802;37.404;2022-11-04T07:56:48;99611.03;;;2.46;78.54
24620;BME280;12763;55.802;37.404;2022-11-04T07:59:26;99610.53;;;2.50;78.55
24620;BME280;12763;55.802;37.404;2022-11-04T08:02:02;99610.69;;;2.49;78.34
24620;BME280;12763;55.802;37.404;2022-11-04T08:04:29;99624.34;;;2.57;78.24
24620;BME280;12763;55.802;37.404;2022-11-04T08:06:55;99624.84;;;2.52;78.97
24620;BME280;12763;55.802;37.404;2022-11-04T08:09:24;99619.94;;;2.64;78.64
24620;BME280;12763;55.802;37.404;2022-11-04T08:11:50;99617.81;;;2.42;79.46
24620;BME280;12763;55.802;37.404;2022-11-04T08:14:20;99616.81;;;2.43;79.73
24620;BME280;12763;55.802;37.404;2022-11-04T08:16:55;99618.00;;;2.40;79.92
24620;BME280;12763;55.802;37.404;2022-11-04T08:19:24;99621.63;;;2.57;79.32
24620;BME280;12763;55.802;37.404;2022-11-04T08:21:56;99613.09;;;2.52;79.63
24620;BME280;12763;55.802;37.404;2022-11-04T08:24:22;99607.00;;;2.74;79.28
24620;BME280;12763;55.802;37.404;2022-11-04T08:26:54;99614.47;;;2.56;79.66
24620;BME280;12763;55.802;37.404;2022-11-04T08:29:21;99603.94;;;2.77;79.34
24620;BME280;12763;55.802;37.404;2022-11-04T08:31:48;99608.19;;;2.63;80.11
24620;BME280;12763;55.802;37.404;2022-11-04T08:34:15;99600.03;;;2.71;79.59
24620;BME280;12763;55.802;37.404;2022-11-04T08:36:44;99606.88;;;2.83;79.53
24620;BME280;12763;55.802;37.404;2022-11-04T08:39:15;99609.06;;;2.88;78.91
24620;BME280;12763;55.802;37.404;2022-11-04T08:41:42;99597.50;;;2.86;79.08
24620;BME280;12763;55.802;37.404;2022-11-04T08:44:14;99598.88;;;2.98;78.68
24620;BME280;12763;55.802;37.404;2022-11-04T08:46:48;99604.16;;;3.16;78.76
24620;BME280;12763;55.802;37.404;2022-11-04T08:49:27;99597.50;;;3.10;78.38
24620;BME280;12763;55.802;37.404;2022-11-04T08:51:56;99606.38;;;3.04;78.20
24620;BME280;12763;55.802;37.404;2022-11-04T08:54:26;99605.88;;;3.17;77.93
24620;BME280;12763;55.802;37.404;2022-11-04T08:56:55;99603.66;;;3.28;77.66
24620;BME280;12763;55.802;37.404;2022-11-04T08:59:22;99604.69;;;3.35;77.43
24620;BME280;12763;55.802;37.404;2022-11-04T09:01:52;99605.00;;;3.48;77.21
24620;BME280;12763;55.802;37.404;2022-11-04T09:04:19;99604.69;;;3.35;76.84
24620;BME280;12763;55.802;37.404;2022-11-04T09:06:46;99602.81;;;3.12;77.94
24620;BME280;12763;55.802;37.404;2022-11-04T09:09:19;99611.34;;;3.17;77.50
24620;BME280;12763;55.802;37.404;2022-11-04T09:11:59;99609.63;;;3.32;77.42
24620;BME280;12763;55.802;37.404;2022-11-04T09:14:28;99608.41;;;3.34;76.85
24620;BME280;12763;55.802;37.404;2022-11-04T09:16:57;99612.34;;;3.16;77.63
24620;BME280;12763;55.802;37.404;2022-11-04T09:19:26;99606.69;;;3.01;78.38
24620;BME280;12763;55.802;37.404;2022-11-04T09:21:52;99603.28;;;2.91;78.73
24620;BME280;12763;55.802;37.404;2022-11-04T09:24:22;99607.75;;;3.08;77.68
24620;BME280;12763;55.802;37.404;2022-11-04T09:26:48;99602.78;;;2.95;78.48
24620;BME280;12763;55.802;37.404;2022-11-04T09:29:17;99603.16;;;3.01;78.40
24620;BME280;12763;55.802;37.404;2022-11-04T09:31:43;99593.09;;;3.09;78.17
24620;BME280;12763;55.802;37.404;2022-11-04T09:34:09;99595.97;;;3.24;78.13
24620;BME280;12763;55.802;37.404;2022-11-04T09:36:36;99600.09;;;3.04;77.73
24620;BME280;12763;55.802;37.404;2022-11-04T09:39:03;99594.09;;;2.92;78.56
24620;BME280;12763;55.802;37.404;2022-11-04T09:44:37;99602.09;;;2.93;78.66
24620;BME280;12763;55.802;37.404;2022-11-04T09:47:09;99600.53;;;2.75;78.54
24620;BME280;12763;55.802;37.404;2022-11-04T09:49:43;99600.91;;;2.96;78.62
24620;BME280;12763;55.802;37.404;2022-11-04T09:52:20;99605.69;;;3.02;78.16
24620;BME280;12763;55.802;37.404;2022-11-04T09:57:33;99604.00;;;3.09;78.35
24620;BME280;12763;55.802;37.404;2022-11-04T10:00:04;99602.81;;;3.20;77.89
24620;BME280;12763;55.802;37.404;2022-11-04T10:05:56;99598.03;;;3.30;77.52
24620;BME280;12763;55.802;37.404;2022-11-04T10:08:57;99596.50;;;3.27;77.82
24620;BME280;12763;55.802;37.404;2022-11-04T10:20:47;99605.38;;;3.13;77.13
24620;BME280;12763;55.802;37.404;2022-11-04T10:23:59;99612.69;;;3.05;77.55
24620;BME280;12763;55.802;37.404;2022-11-04T10:26:35;99612.16;;;3.01;77.97
24620;BME280;12763;55.802;37.404;2022-11-04T10:29:11;99613.72;;;3.12;77.73
24620;BME280;12763;55.802;37.404;2022-11-04T10:31:42;99616.59;;;2.94;78.03
24620;BME280;12763;55.802;37.404;2022-11-04T10:34:54;99618.66;;;3.08;78.08
24620;BME280;12763;55.802;37.404;2022-11-04T10:37:24;99606.38;;;2.96;78.37
24620;BME280;12763;55.802;37.404;2022-11-04T10:40:11;99609.25;;;2.86;78.76
24620;BME280;12763;55.802;37.404;2022-11-04T10:42:49;99617.22;;;2.64;79.92
24620;BME280;12763;55.802;37.404;2022-11-04T10:45:22;99606.53;;;2.78;79.50
24620;BME280;12763;55.802;37.404;2022-11-04T10:47:58;99605.88;;;3.01;79.06
24620;BME280;12763;55.802;37.404;2022-11-04T10:50:27;99608.41;;;3.02;79.00
24620;BME280;12763;55.802;37.404;2022-11-04T10:53:22;99604.34;;;3.14;78.39
24620;BME280;12763;55.802;37.404;2022-11-04T10:58:23;99604.84;;;3.10;78.37
24620;BME280;12763;55.802;37.404;2022-11-04T11:00:57;99597.84;;;3.23;78.08
24620;BME280;12763;55.802;37.404;2022-11-04T11:03:32;99600.94;;;3.20;78.33
24620;BME280;12763;55.802;37.404;2022-11-04T11:09:00;99587.63;;;3.49;77.72
24620;BME280;12763;55.802;37.404;2022-11-04T11:11:46;99601.28;;;3.41;77.24
24620;BME280;12763;55.802;37.404;2022-11-04T11:17:36;99609.47;;;3.41;78.14
24620;BME280;12763;55.802;37.404;2022-11-04T11:22:42;99608.44;;;3.42;78.15
24620;BME280;12763;55.802;37.404;2022-11-04T11:33:23;99612.84;;;3.43;77.84
24620;BME280;12763;55.802;37.404;2022-11-04T11:36:03;99608.94;;;3.22;78.45
24620;BME280;12763;55.802;37.404;2022-11-04T11:38:50;99612.53;;;3.30;78.36
24620;BME280;12763;55.802;37.404;2022-11-04T11:41:19;99614.72;;;3.19;79.31
24620;BME280;12763;55.802;37.404;2022-11-04T11:43:51;99608.94;;;3.06;78.78
24620;BME280;12763;55.802;37.404;2022-11-04T11:46:25;99618.44;;;2.85;80.20
24620;BME280;12763;55.802;37.404;2022-11-04T11:49:11;99617.28;;;3.12;79.65
24620;BME280;12763;55.802;37.404;2022-11-04T11:51:52;99613.53;;;3.37;78.35
24620;BME280;12763;55.802;37.404;2022-11-04T11:54:36;99628.22;;;3.20;79.41
24620;BME280;12763;55.802;37.404;2022-11-04T11:57:07;99636.72;;;3.17;79.81
24620;BME280;12763;55.802;37.404;2022-11-04T11:59:54;99632.16;;;3.34;78.95
24620;BME280;12763;55.802;37.404;2022-11-04T12:02:30;99632.63;;;3.29;79.52
24620;BME280;12763;55.802;37.404;2022-11-04T12:05:00;99633.69;;;3.28;79.16
24620;BME280;12763;55.802;37.404;2022-11-04T12:07:39;99626.50;;;3.19;79.66
24620;BME280;12763;55.802;37.404;2022-11-04T12:13:20;99635.19;;;3.39;79.26
24620;BME280;12763;55.802;37.404;2022-11-04T12:16:20;99633.47;;;3.46;79.21
24620;BME280;12763;55.802;37.404;2022-11-04T12:19:05;99633.34;;;3.39;78.78
24620;BME280;12763;55.802;37.404;2022-11-04T12:21:46;99633.31;;;3.55;78.87
24620;BME280;12763;55.802;37.404;2022-11-04T12:27:45;99635.19;;;3.39;79.05
24620;BME280;12763;55.802;37.404;2022-11-04T12:30:22;99636.72;;;3.41;79.48
24620;BME280;12763;55.802;37.404;2022-11-04T12:33:31;99639.97;;;3.29;80.02
24620;BME280;12763;55.802;37.404;2022-11-04T12:39:21;99641.00;;;3.52;78.45
24620;BME280;12763;55.802;37.404;2022-11-04T12:44:52;99633.69;;;3.36;79.24
24620;BME280;12763;55.802;37.404;2022-11-04T12:47:40;99639.47;;;3.33;79.81
24620;BME280;12763;55.802;37.404;2022-11-04T12:56:26;99641.53;;;3.31;79.47
24620;BME280;12763;55.802;37.404;2022-11-04T12:59:24;99649.84;;;3.38;80.07
24620;BME280;12763;55.802;37.404;2022-11-04T13:02:21;99650.50;;;3.08;80.46
24620;BME280;12763;55.802;37.404;2022-11-04T13:04:59;99647.47;;;3.19;80.80
24620;BME280;12763;55.802;37.404;2022-11-04T13:07:42;99652.91;;;3.11;80.85
24620;BME280;12763;55.802;37.404;2022-11-04T13:10:20;99654.78;;;3.26;80.33
24620;BME280;12763;55.802;37.404;2022-11-04T13:12:50;99650.91;;;3.37;80.50
24620;BME280;12763;55.802;37.404;2022-11-04T13:15:21;99656.50;;;3.27;79.88
24620;BME280;12763;55.802;37.404;2022-11-04T13:17:59;99651.06;;;3.27;80.50
24620;BME280;12763;55.802;37.404;2022-11-04T13:20:41;99645.25;;;3.30;80.30
24620;BME280;12763;55.802;37.404;2022-11-04T13:23:26;99648.84;;;3.23;81.04
24620;BME280;12763;55.802;37.404;2022-11-04T13:25:56;99652.06;;;3.26;80.48
24620;BME280;12763;55.802;37.404;2022-11-04T13:28:25;99653.78;;;3.27;80.53
24620;BME280;12763;55.802;37.404;2022-11-04T13:31:06;99658.34;;;3.03;81.70
24620;BME280;12763;55.802;37.404;2022-11-04T13:34:21;99657.19;;;3.21;80.56
24620;BME280;12763;55.802;37.404;2022-11-04T13:36:49;99656.81;;;3.08;81.37
24620;BME280;12763;55.802;37.404;2022-11-04T13:40:16;99662.63;;;3.29;80.85
24620;BME280;12763;55.802;37.404;2022-11-04T13:45:16;99671.16;;;3.18;80.88
24620;BME280;12763;55.802;37.404;2022-11-04T13:47:55;99668.09;;;3.37;80.35
24620;BME280;12763;55.802;37.404;2022-11-04T13:50:38;99672.72;;;3.37;80.52
24620;BME280;12763;55.802;37.404;2022-11-04T13:53:17;99679.00;;;3.29;80.70
24620;BME280;12763;55.802;37.404;2022-11-04T13:55:49;99674.56;;;3.20;80.56
24620;BME280;12763;55.802;37.404;2022-11-04T13:58:24;99676.78;;;3.25;80.25
24620;BME280;12763;55.802;37.404;2022-11-04T14:01:27;99684.78;;;3.34;80.45
24620;BME280;12763;55.802;37.404;2022-11-04T14:04:25;99692.50;;;3.39;80.28
24620;BME280;12763;55.802;37.404;2022-11-04T14:06:56;99679.53;;;3.33;80.31
24620;BME280;12763;55.802;37.404;2022-11-04T14:14:41;99695.19;;;3.15;80.90
24620;BME280;12763;55.802;37.404;2022-11-04T14:20:29;99681.72;;;3.21;81.74
24620;BME280;12763;55.802;37.404;2022-11-04T14:23:04;99677.31;;;3.36;80.85
24620;BME280;12763;55.802;37.404;2022-11-04T14:25:39;99679.00;;;3.37;80.21
24620;BME280;12763;55.802;37.404;2022-11-04T14:30:53;99686.69;;;3.42;80.16
24620;BME280;12763;55.802;37.404;2022-11-04T14:33:36;99695.03;;;3.48;80.31
24620;BME280;12763;55.802;37.404;2022-11-04T14:38:43;99690.09;;;3.44;79.96
24620;BME280;12763;55.802;37.404;2022-11-04T14:46:47;99701.88;;;3.44;79.94
24620;BME280;12763;55.802;37.404;2022-11-04T14:52:43;99704.41;;;3.30;81.29
24620;BME280;12763;55.802;37.404;2022-11-04T14:55:20;99706.81;;;3.41;81.28
24620;BME280;12763;55.802;37.404;2022-11-04T14:57:54;99704.25;;;3.55;80.65
24620;BME280;12763;55.802;37.404;2022-11-04T15:00:51;99711.59;;;3.63;80.38
24620;BME280;12763;55.802;37.404;2022-11-04T15:05:52;99717.19;;;3.53;81.30
24620;BME280;12763;55.802;37.404;2022-11-04T15:08:35;99720.97;;;3.52;80.58
24620;BME280;12763;55.802;37.404;2022-11-04T15:11:21;99717.72;;;3.57;80.99
24620;BME280;12763;55.802;37.404;2022-11-04T15:17:16;99719.59;;;3.56;80.88
24620;BME280;12763;55.802;37.404;2022-11-04T15:19:56;99730.34;;;3.58;81.10
24620;BME280;12763;55.802;37.404;2022-11-04T15:22:36;99730.34;;;3.58;80.88
24620;BME280;12763;55.802;37.404;2022-11-04T15:25:03;99728.63;;;3.41;80.99
24620;BME280;12763;55.802;37.404;2022-11-04T15:27:31;99726.44;;;3.52;81.19
24620;BME280;12763;55.802;37.404;2022-11-04T15:30:04;99727.63;;;3.50;81.07
24620;BME280;12763;55.802;37.404;2022-11-04T15:32:33;99729.66;;;3.48;80.99
24620;BME280;12763;55.802;37.404;2022-11-04T15:35:03;99727.44;;;3.43;81.31
24620;BME280;12763;55.802;37.404;2022-11-04T15:37:30;99740.72;;;3.38;81.75
24620;BME280;12763;55.802;37.404;2022-11-04T15:39:57;99734.94;;;3.49;81.65